Time;durP1;ratioP1;P1;durP2;ratioP2;P2;SDS_P1;SDS_P2;PMS_P1;PMS_P2;Temp;Humidity;BMP_temperature;BMP_pressure;BME280_temperature;BME280_humidity;BME280_pressure;Samples;Min_cycle;Max_cycle;Signal;HPM_P1;HPM_P2
2021/05/18 00:00:14;;;;;;;16.21;10.62;;;;;;;19.79;66.55;99776.66;435991;119;923127;-69
2021/05/18 00:01:18;;;;;;;18.28;12.36;;;;;;;19.77;66.59;99778.92;436035;119;930304;-71
2021/05/18 00:02:21;;;;;;;18.69;13.06;;;;;;;19.76;66.66;99781.97;437553;119;923133;-70
2021/05/18 00:03:25;;;;;;;26.67;16.24;;;;;;;19.75;66.69;99780.31;437558;119;930530;-70
2021/05/18 00:04:29;;;;;;;26.02;16.42;;;;;;;19.74;66.68;99773.13;437974;119;922752;-70
2021/05/18 00:05:35;;;;;;;25.41;17.36;;;;;;;19.73;66.71;99777.05;437782;119;922522;-70
2021/05/18 00:06:40;;;;;;;24.59;16.54;;;;;;;19.72;66.83;99772.63;437752;119;924200;-73
2021/05/18 00:08:04;;;;;;;30.75;16.68;;;;;;;19.71;66.91;99773.73;438462;119;923412;-69
2021/05/18 00:11:43;;;;;;;29.21;17.34;;;;;;;19.72;66.99;99803.87;437873;117;923167;-71
2021/05/18 00:13:19;;;;;;;30.29;17.38;;;;;;;19.72;66.97;99809.41;429995;121;925662;-71
2021/05/18 00:14:26;;;;;;;33.77;18.30;;;;;;;19.73;66.89;99824.89;434606;119;923374;-69
2021/05/18 00:15:30;;;;;;;28.99;17.87;;;;;;;19.74;66.93;99833.98;437369;119;924140;-68
2021/05/18 00:16:34;;;;;;;18.04;13.11;;;;;;;19.75;67.01;99846.70;437776;119;922459;-68
2021/05/18 00:17:39;;;;;;;13.84;10.74;;;;;;;19.76;67.01;99853.89;438371;119;923040;-67
2021/05/18 00:18:43;;;;;;;12.08;9.58;;;;;;;19.79;66.92;99861.63;437596;119;923237;-68
2021/05/18 00:19:51;;;;;;;16.87;8.76;;;;;;;19.79;66.81;99864.39;437954;119;930186;-69
2021/05/18 00:20:58;;;;;;;13.38;8.26;;;;;;;19.81;66.74;99875.97;432724;121;924222;-69
2021/05/18 00:22:10;;;;;;;9.26;7.77;;;;;;;19.81;66.69;99885.09;441806;117;924433;-69
2021/05/18 00:23:23;;;;;;;14.17;8.75;;;;;;;19.83;66.73;99887.58;439254;119;922734;-70
2021/05/18 00:24:34;;;;;;;15.98;8.62;;;;;;;19.83;66.83;99896.70;438401;117;922841;-69
2021/05/18 00:25:50;;;;;;;9.91;7.11;;;;;;;19.84;66.88;99894.77;444641;117;923831;-68
2021/05/18 00:27:10;;;;;;;13.06;6.36;;;;;;;19.83;66.92;99899.47;445135;116;922607;-69
2021/05/18 00:28:24;;;;;;;11.06;6.07;;;;;;;19.82;67.01;99897.81;429292;121;922857;-67
2021/05/18 00:29:37;;;;;;;8.94;6.24;;;;;;;19.83;67.25;99893.11;435057;117;924150;-69
2021/05/18 00:30:46;;;;;;;8.91;6.61;;;;;;;19.83;67.56;99898.64;437956;119;923157;-69
2021/05/18 00:31:53;;;;;;;13.01;6.89;;;;;;;19.82;67.72;99900.58;439488;117;923159;-68
2021/05/18 00:33:09;;;;;;;11.30;6.13;;;;;;;19.82;67.84;99897.81;432253;119;924099;-69
2021/05/18 00:34:30;;;;;;;11.38;5.59;;;;;;;19.81;68.07;99898.92;444692;117;923300;-68
2021/05/18 00:35:46;;;;;;;13.66;5.82;;;;;;;19.80;68.36;99893.67;429376;121;923675;-69
2021/05/18 00:36:57;;;;;;;9.62;5.36;;;;;;;19.76;68.71;99889.84;419385;123;922465;-68
2021/05/18 00:38:04;;;;;;;13.97;5.24;;;;;;;19.72;68.90;99886.03;426178;119;923086;-69
2021/05/18 00:39:25;;;;;;;9.59;5.88;;;;;;;19.70;69.26;99879.95;441052;118;923147;-69
2021/05/18 00:40:35;;;;;;;12.93;5.74;;;;;;;19.68;69.38;99879.44;446202;117;922609;-69
2021/05/18 00:41:44;;;;;;;9.47;5.59;;;;;;;19.66;69.63;99882.48;445194;117;922506;-70
2021/05/18 00:42:50;;;;;;;10.72;5.52;;;;;;;19.66;69.95;99876.12;438160;119;922607;-69
2021/05/18 00:44:07;;;;;;;11.62;6.00;;;;;;;19.64;70.43;99875.58;437502;117;922774;-73
2021/05/18 00:45:32;;;;;;;11.03;5.81;;;;;;;19.60;70.78;99871.76;434974;119;923779;-73
2021/05/18 00:46:39;;;;;;;10.08;5.36;;;;;;;19.55;71.04;99864.34;437597;117;922571;-74
2021/05/18 00:47:44;;;;;;;11.68;5.74;;;;;;;19.49;71.48;99868.27;442677;117;922606;-73
2021/05/18 00:48:59;;;;;;;9.36;6.37;;;;;;;19.45;71.91;99859.74;442449;117;930488;-74
2021/05/18 00:50:20;;;;;;;13.91;6.35;;;;;;;19.40;72.21;99854.23;441623;117;924431;-73
2021/05/18 00:51:32;;;;;;;8.77;5.67;;;;;;;19.34;72.36;99838.80;428537;122;923249;-73
2021/05/18 00:52:38;;;;;;;10.18;5.77;;;;;;;19.29;72.54;99822.27;426185;119;925585;-72
2021/05/18 00:53:48;;;;;;;12.52;6.07;;;;;;;19.29;72.95;99826.97;435943;117;923729;-72
2021/05/18 00:55:08;;;;;;;8.57;6.07;;;;;;;19.26;73.15;99819.23;435543;119;924245;-71
2021/05/18 00:59:18;;;;;;;13.73;6.32;;;;;;;19.18;73.62;99815.98;431575;119;924182;-74
2021/05/18 01:00:23;;;;;;;9.47;5.64;;;;;;;19.14;73.85;99806.62;432573;117;924836;-71
2021/05/18 01:01:34;;;;;;;11.62;5.35;;;;;;;19.13;73.74;99799.44;442643;117;923231;-73
2021/05/18 01:02:48;;;;;;;7.27;4.92;;;;;;;19.13;73.75;99793.91;428204;122;922739;-71
2021/05/18 01:04:05;;;;;;;8.78;6.17;;;;;;;19.11;73.68;99782.34;444504;114;923763;-74
2021/05/18 01:05:20;;;;;;;8.04;5.42;;;;;;;19.09;73.91;99779.04;446660;116;924080;-71
2021/05/18 01:06:28;;;;;;;7.86;6.26;;;;;;;19.05;73.77;99766.10;439037;119;926832;-74
2021/05/18 01:07:34;;;;;;;10.87;5.87;;;;;;;18.99;74.25;99761.73;436724;117;922645;-74
2021/05/18 01:08:43;;;;;;;7.32;5.96;;;;;;;18.93;74.51;99749.91;440558;118;923438;-73
2021/05/18 01:09:59;;;;;;;12.03;5.61;;;;;;;18.89;74.71;99745.25;438752;119;926620;-72
2021/05/18 01:11:19;;;;;;;6.61;5.37;;;;;;;18.84;75.08;99742.53;441542;117;923956;-76
2021/05/18 01:12:34;;;;;;;6.69;5.69;;;;;;;18.79;75.23;99739.82;435530;119;924099;-72
2021/05/18 01:13:44;;;;;;;7.58;5.97;;;;;;;18.73;75.16;99747.33;438452;117;924224;-74
2021/05/18 01:14:50;;;;;;;11.68;6.19;;;;;;;18.69;75.39;99740.70;443803;117;924136;-71
2021/05/18 01:16:00;;;;;;;12.65;7.23;;;;;;;18.65;75.23;99753.45;444509;117;922728;-72
2021/05/18 01:17:08;;;;;;;12.77;8.12;;;;;;;18.63;75.45;99766.73;444416;117;922595;-74
2021/05/18 01:20:26;;;;;;;9.76;8.66;;;;;;;18.60;75.52;99765.36;443628;117;923221;-69
2021/05/18 01:21:42;;;;;;;15.19;11.17;;;;;;;18.59;75.68;99773.92;439015;119;922567;-68
2021/05/18 01:22:50;;;;;;;16.24;14.29;;;;;;;18.61;75.57;99780.83;439951;117;922557;-69
2021/05/18 01:24:04;;;;;;;19.89;15.72;;;;;;;18.62;75.48;99776.95;436515;119;923014;-69
2021/05/18 01:25:12;;;;;;;27.06;19.97;;;;;;;18.63;75.46;99764.80;438451;117;922588;-70
2021/05/18 01:26:17;;;;;;;24.37;20.18;;;;;;;18.64;75.43;99763.66;444295;117;922999;-69
2021/05/18 01:27:21;;;;;;;21.90;18.99;;;;;;;18.66;75.33;99764.22;436860;119;922959;-70
2021/05/18 01:28:27;;;;;;;21.13;18.18;;;;;;;18.68;75.29;99758.41;436587;119;923076;-69
2021/05/18 01:29:32;;;;;;;20.59;16.93;;;;;;;18.69;75.38;99763.63;436375;119;922622;-70
2021/05/18 01:30:38;;;;;;;20.57;18.23;;;;;;;18.69;75.35;99763.63;443811;117;922913;-69
2021/05/18 01:31:45;;;;;;;20.90;18.36;;;;;;;18.68;75.17;99773.05;439693;118;922757;-69
2021/05/18 01:32:51;;;;;;;23.31;19.97;;;;;;;18.69;75.18;99773.84;437960;117;930559;-69
2021/05/18 01:33:59;;;;;;;23.19;19.40;;;;;;;18.71;75.13;99780.74;444140;117;922506;-69
2021/05/18 01:35:05;;;;;;;24.54;19.12;;;;;;;18.72;74.92;99767.77;435492;119;922792;-69
2021/05/18 01:36:11;;;;;;;26.12;19.51;;;;;;;18.71;74.94;99758.65;440124;118;922831;-69
2021/05/18 01:37:14;;;;;;;21.46;18.36;;;;;;;18.71;74.95;99766.94;443690;117;923221;-69
2021/05/18 01:38:23;;;;;;;19.04;17.23;;;;;;;18.71;74.98;99758.65;443857;117;922705;-68
2021/05/18 01:43:54;;;;;;;15.93;11.53;;;;;;;18.66;74.73;99725.55;443002;117;923897;-67
2021/05/18 01:44:59;;;;;;;11.79;10.04;;;;;;;18.60;74.84;99723.12;436849;119;923046;-68
2021/05/18 01:46:05;;;;;;;13.81;10.71;;;;;;;18.56;74.98;99724.81;427275;121;924197;-69
2021/05/18 01:47:11;;;;;;;12.24;9.29;;;;;;;18.53;75.20;99722.58;430941;119;925759;-69
2021/05/18 01:48:17;;;;;;;9.74;8.74;;;;;;;18.51;75.32;99728.41;443365;117;924029;-70
2021/05/18 01:49:23;;;;;;;9.58;8.57;;;;;;;18.50;75.31;99731.45;443940;117;924018;-68
2021/05/18 01:50:29;;;;;;;11.83;8.61;;;;;;;18.49;75.28;99730.62;443454;117;923725;-70
2021/05/18 01:51:37;;;;;;;10.09;7.97;;;;;;;18.48;75.25;99734.49;444102;117;924101;-69
2021/05/18 01:52:41;;;;;;;8.28;7.37;;;;;;;18.49;75.32;99735.32;441113;118;924028;-71
2021/05/18 01:53:45;;;;;;;8.42;7.55;;;;;;;18.49;75.49;99730.62;444050;117;925710;-69
2021/05/18 01:54:50;;;;;;;8.53;7.31;;;;;;;18.51;75.49;99731.17;447733;116;923891;-69
2021/05/18 01:56:15;;;;;;;9.13;7.47;;;;;;;18.53;75.57;99728.10;448305;116;932017;-69
2021/05/18 01:57:26;;;;;;;8.75;7.03;;;;;;;18.54;75.57;99727.86;445354;116;924484;-69
2021/05/18 01:59:12;;;;;;;7.86;6.76;;;;;;;18.54;75.55;99729.75;454273;114;923202;-70
2021/05/18 02:00:39;;;;;;;7.88;6.82;;;;;;;18.56;75.52;99725.64;456563;114;924110;-69
2021/05/18 02:01:48;;;;;;;8.38;6.65;;;;;;;18.55;75.61;99729.52;440098;118;924334;-69
2021/05/18 02:02:54;;;;;;;7.87;6.19;;;;;;;18.57;75.59;99735.58;447125;116;922583;-68
2021/05/18 02:04:00;;;;;;;9.64;6.64;;;;;;;18.60;75.54;99731.41;456755;114;926572;-67
2021/05/18 02:05:12;;;;;;;9.31;6.40;;;;;;;18.62;75.38;99732.78;457114;114;923932;-69
2021/05/18 02:06:32;;;;;;;10.52;7.31;;;;;;;18.64;75.38;99733.30;454015;113;926715;-70
2021/05/18 02:07:54;;;;;;;10.99;7.31;;;;;;;18.67;75.25;99737.43;449954;115;924802;-69
2021/05/18 02:09:29;;;;;;;8.50;6.86;;;;;;;18.67;75.20;99735.49;451334;114;922583;-69
2021/05/18 02:10:40;;;;;;;10.23;7.12;;;;;;;18.69;75.13;99743.47;440539;120;922809;-69
2021/05/18 02:11:49;;;;;;;15.48;7.79;;;;;;;18.69;75.06;99735.19;425735;120;923158;-68
2021/05/18 02:12:57;;;;;;;8.10;7.24;;;;;;;18.67;75.01;99732.73;440283;118;924457;-69
2021/05/18 02:14:07;;;;;;;8.35;7.41;;;;;;;18.69;75.05;99738.77;438513;119;922433;-70
2021/05/18 02:16:07;;;;;;;9.68;7.50;;;;;;;18.71;75.03;99736.56;440724;118;930496;-69
2021/05/18 02:16:35;;;;;;;8.79;7.60;;;;;;;18.75;74.92;99737.62;428705;116;923058;-69
2021/05/18 02:17:41;;;;;;;8.38;7.22;;;;;;;18.81;74.93;99737.58;446050;117;923207;-69
2021/05/18 02:20:36;;;;;;;11.22;8.70;;;;;;;18.89;74.62;99745.25;454597;114;922491;-69
2021/05/18 02:21:48;;;;;;;11.22;8.31;;;;;;;18.91;74.48;99746.59;455953;114;922932;-68
2021/05/18 02:25:20;;;;;;;9.81;8.53;;;;;;;18.90;74.23;99756.02;458090;114;922550;-69
2021/05/18 02:26:43;;;;;;;13.26;10.92;;;;;;;18.88;74.17;99752.71;457213;114;922480;-68
2021/05/18 02:27:57;;;;;;;13.68;12.28;;;;;;;18.85;74.12;99752.48;442699;117;922878;-70
2021/05/18 02:29:02;;;;;;;14.52;12.13;;;;;;;18.81;74.13;99757.73;437731;115;923276;-69
2021/05/18 02:30:07;;;;;;;15.66;12.96;;;;;;;18.79;74.14;99759.98;442589;116;923073;-68
2021/05/18 02:31:13;;;;;;;15.84;12.83;;;;;;;18.79;74.14;99759.98;448284;116;930471;-68
2021/05/18 02:32:24;;;;;;;16.35;13.45;;;;;;;18.81;74.30;99756.91;440260;118;924024;-66
2021/05/18 02:33:35;;;;;;;15.45;12.43;;;;;;;18.82;74.18;99761.33;442370;116;923061;-70
2021/05/18 02:34:40;;;;;;;14.07;12.63;;;;;;;18.83;74.01;99766.56;448403;116;923980;-68
2021/05/18 02:35:44;;;;;;;14.09;11.65;;;;;;;18.84;73.98;99759.11;448315;116;923940;-67
2021/05/18 02:36:50;;;;;;;12.78;11.05;;;;;;;18.84;73.90;99761.88;447445;116;930269;-67
2021/05/18 02:37:54;;;;;;;16.37;13.02;;;;;;;18.84;73.80;99765.46;457520;113;922426;-70
2021/05/18 02:38:59;;;;;;;15.95;11.52;;;;;;;18.84;73.72;99764.63;457178;113;923323;-68
2021/05/18 02:40:14;;;;;;;13.57;11.46;;;;;;;18.82;73.65;99770.44;440535;118;924199;-68
2021/05/18 02:41:18;;;;;;;11.93;10.79;;;;;;;18.82;73.61;99775.96;433796;120;923566;-69
2021/05/18 02:42:32;;;;;;;12.74;11.27;;;;;;;18.82;73.62;99772.37;434300;118;924262;-68
2021/05/18 02:44:01;;;;;;;11.13;10.00;;;;;;;18.81;73.73;99771.55;439222;118;924193;-69
2021/05/18 02:45:14;;;;;;;16.38;10.86;;;;;;;18.81;73.67;99773.48;439423;118;922525;-69
2021/05/18 02:49:22;;;;;;;12.11;10.58;;;;;;;18.80;73.80;99772.66;448652;116;923331;-69
2021/05/18 02:50:29;;;;;;;13.56;11.88;;;;;;;18.80;73.75;99778.17;440006;118;924702;-71
2021/05/18 02:51:39;;;;;;;13.07;11.02;;;;;;;18.78;73.84;99783.19;440489;118;924127;-70
2021/05/18 02:52:44;;;;;;;16.91;11.47;;;;;;;18.78;73.84;99783.19;437122;120;926137;-70
2021/05/18 02:53:51;;;;;;;22.52;14.52;;;;;;;18.79;73.90;99784.02;438527;119;924186;-70
2021/05/18 02:55:00;;;;;;;18.92;13.75;;;;;;;18.80;73.73;99793.95;438444;118;924089;-71
2021/05/18 02:56:21;;;;;;;15.46;12.40;;;;;;;18.80;73.62;99791.98;442313;118;922548;-71
2021/05/18 02:57:31;;;;;;;14.97;10.53;;;;;;;18.80;73.63;99785.66;456543;112;923954;-71
2021/05/18 02:58:26;;;;;;;13.33;10.73;;;;;;;18.77;73.67;99787.05;450307;115;925746;-71
2021/05/18 02:59:32;;;;;;;12.12;8.74;;;;;;;18.78;73.64;99785.12;455304;114;924552;-72
2021/05/18 03:00:37;;;;;;;10.33;9.17;;;;;;;18.77;73.64;99784.29;460341;112;923153;-72
2021/05/18 03:01:45;;;;;;;12.09;9.29;;;;;;;18.75;73.65;99779.05;447649;115;924179;-71
2021/05/18 03:02:51;;;;;;;10.36;9.07;;;;;;;18.75;73.73;99790.09;451984;115;926612;-69
2021/05/18 03:03:59;;;;;;;11.62;9.23;;;;;;;18.75;73.87;99789.27;460201;113;922921;-71
2021/05/18 03:05:11;;;;;;;9.18;8.25;;;;;;;18.75;73.99;99789.27;455804;114;924067;-71
2021/05/18 03:06:16;;;;;;;11.48;8.28;;;;;;;18.77;74.01;99791.75;451590;117;925526;-73
2021/05/18 03:07:21;;;;;;;9.14;6.96;;;;;;;18.78;73.98;99798.92;459269;113;924029;-73
2021/05/18 03:08:26;;;;;;;9.08;7.29;;;;;;;18.80;73.90;99802.23;455048;114;930507;-75
2021/05/18 03:09:30;;;;;;;9.79;6.96;;;;;;;18.80;73.71;99802.23;459897;113;922644;-74
2021/05/18 03:10:35;;;;;;;8.82;6.61;;;;;;;18.80;73.69;99791.19;453322;115;922628;-73
2021/05/18 03:11:40;;;;;;;9.68;7.18;;;;;;;18.78;73.73;99793.41;453435;114;923124;-74
2021/05/18 03:12:44;;;;;;;8.81;7.01;;;;;;;18.79;73.75;99795.06;460240;112;922872;-70
2021/05/18 03:13:48;;;;;;;11.86;7.29;;;;;;;18.77;73.73;99795.34;460962;114;922557;-73
2021/05/18 03:14:51;;;;;;;9.79;7.24;;;;;;;18.77;73.73;99792.58;460827;112;922476;-72
2021/05/18 03:15:56;;;;;;;9.00;7.03;;;;;;;18.77;73.76;99797.27;450711;114;930539;-72
2021/05/18 03:17:02;;;;;;;8.73;7.72;;;;;;;18.77;73.86;99800.03;450776;114;930637;-72
2021/05/18 03:18:06;;;;;;;6.92;5.94;;;;;;;18.75;73.88;99797.55;458639;113;922569;-73
2021/05/18 03:19:12;;;;;;;9.33;7.21;;;;;;;18.75;73.93;99803.08;455671;115;922406;-72
2021/05/18 03:20:18;;;;;;;10.73;6.84;;;;;;;18.75;73.89;99811.36;456131;114;923085;-73
2021/05/18 03:21:21;;;;;;;8.11;7.28;;;;;;;18.75;73.87;99806.66;455072;114;924070;-73
2021/05/18 03:22:25;;;;;;;9.10;6.96;;;;;;;18.75;73.88;99812.19;453974;115;925494;-72
2021/05/18 03:23:29;;;;;;;8.35;7.02;;;;;;;18.75;73.85;99820.47;455612;115;924047;-71
2021/05/18 03:24:32;;;;;;;9.43;7.03;;;;;;;18.74;73.83;99827.10;455610;114;925567;-71
2021/05/18 03:25:35;;;;;;;8.14;7.34;;;;;;;18.78;73.88;99832.07;456603;114;924242;-71
2021/05/18 03:26:49;;;;;;;7.94;7.18;;;;;;;18.78;73.89;99837.59;458607;114;925894;-70
2021/05/18 03:27:56;;;;;;;11.06;8.16;;;;;;;18.81;73.91;99842.53;451303;117;924098;-72
2021/05/18 03:29:09;;;;;;;12.05;8.07;;;;;;;18.83;73.89;99851.36;459396;114;925591;-73
2021/05/18 03:30:20;;;;;;;7.97;7.14;;;;;;;18.85;73.95;99858.27;458243;114;923312;-73
2021/05/18 03:35:34;;;;;;;7.36;6.63;;;;;;;18.94;73.75;99880.57;470786;112;924807;-72
2021/05/18 03:36:39;;;;;;;8.54;6.44;;;;;;;18.97;73.66;99885.51;470517;112;926882;-72
2021/05/18 03:37:52;;;;;;;9.28;7.00;;;;;;;18.98;73.64;99885.23;470245;110;924456;-73
2021/05/18 03:38:56;;;;;;;9.11;6.71;;;;;;;19.02;73.72;99893.79;468089;110;923943;-72
2021/05/18 03:40:07;;;;;;;11.76;7.24;;;;;;;19.04;73.78;99895.13;468150;110;924026;-72
2021/05/18 03:41:18;;;;;;;9.87;6.84;;;;;;;19.06;73.80;99901.21;468972;110;924032;-71
2021/05/18 03:48:39;;;;;;;15.70;10.13;;;;;;;19.11;73.62;99912.23;469789;110;923260;-72
2021/05/18 03:54:10;;;;;;;15.46;10.32;;;;;;;19.13;74.62;99898.93;474163;109;948656;-70
2021/05/18 03:58:36;;;;;;;;;;;;;;;18.97;74.80;99902.91;473977;111;922391;-70
2021/05/18 04:03:40;;;;;;;13.37;9.26;;;;;;;18.70;76.75;99891.48;470307;111;922517;-69
2021/05/18 04:04:16;;;;;;;13.34;7.79;;;;;;;18.68;76.81;99888.20;459962;111;923891;-70
2021/05/18 04:10:12;;;;;;;11.15;7.62;;;;;;;18.66;76.96;99882.13;470219;112;922851;-69
2021/05/18 04:11:10;;;;;;;7.24;6.44;;;;;;;18.56;77.33;99871.14;468635;111;922584;-68
2021/05/18 04:16:49;;;;;;;6.79;5.49;;;;;;;18.52;77.25;99873.63;469590;111;922413;-70
2021/05/18 04:17:05;;;;;;;5.30;4.81;;;;;;;18.47;77.07;99868.10;470188;112;922919;-67
2021/05/18 04:18:15;;;;;;;5.76;4.61;;;;;;;18.45;77.08;99866.75;469715;112;922426;-69
2021/05/18 04:19:16;;;;;;;5.33;4.82;;;;;;;18.44;77.11;99865.92;460589;114;922602;-69
2021/05/18 04:20:36;;;;;;;5.83;4.81;;;;;;;18.43;77.08;99855.98;471581;111;922534;-68
2021/05/18 04:24:33;;;;;;;6.41;5.68;;;;;;;18.43;77.29;99867.03;468308;111;922838;-71
2021/05/18 04:38:52;;;;;;;4.98;4.54;;;;;;;18.49;77.27;99865.89;469191;111;922552;-71
2021/05/18 04:41:14;;;;;;;6.10;4.30;;;;;;;18.50;77.40;99864.79;471618;111;922548;-69
2021/05/18 04:48:15;;;;;;;5.08;4.08;;;;;;;18.54;77.34;99868.66;469725;111;923087;-70
2021/05/18 04:52:40;;;;;;;6.79;4.87;;;;;;;18.62;77.28;99867.25;467282;111;922536;-70
2021/05/18 04:54:15;;;;;;;4.62;3.31;;;;;;;18.63;77.25;99869.73;468078;111;922703;-70
2021/05/18 04:59:14;;;;;;;4.54;4.12;;;;;;;18.65;77.17;99859.20;470183;112;922477;-70
2021/05/18 05:00:14;;;;;;;7.56;5.81;;;;;;;18.65;77.24;99861.97;468814;112;922743;-72
2021/05/18 05:07:34;;;;;;;16.92;15.27;;;;;;;18.86;76.89;99846.08;448588;115;922868;-68
2021/05/18 05:09:25;;;;;;;18.83;17.02;;;;;;;18.97;76.86;99842.13;464874;110;1197476;-69
2021/05/18 05:09:47;;;;;;;21.15;19.04;;;;;;;18.87;76.78;99839.45;448143;114;924360;-67
2021/05/18 05:14:49;;;;;;;18.46;15.54;;;;;;;19.03;76.29;99820.81;471680;110;949501;-69
2021/05/18 05:15:52;;;;;;;14.76;13.31;;;;;;;18.92;76.26;99822.01;461718;112;922532;-68
2021/05/18 05:16:56;;;;;;;11.28;9.83;;;;;;;18.94;76.34;99830.84;462709;112;930640;-67
2021/05/18 05:18:00;;;;;;;8.38;7.59;;;;;;;18.95;76.23;99824.21;464181;112;930422;-67
2021/05/18 05:19:03;;;;;;;7.52;6.70;;;;;;;18.96;76.17;99823.10;462883;112;922895;-67
2021/05/18 05:20:08;;;;;;;6.24;5.58;;;;;;;18.98;76.16;99818.92;463380;111;923293;-68
2021/05/18 05:21:12;;;;;;;6.01;5.51;;;;;;;19.00;76.14;99818.64;463586;112;923000;-68
2021/05/18 05:22:16;;;;;;;4.51;4.12;;;;;;;19.06;76.26;99814.73;463948;111;922418;-68
2021/05/18 05:23:22;;;;;;;4.76;4.34;;;;;;;19.09;76.27;99827.95;464441;111;930487;-67
2021/05/18 05:24:25;;;;;;;4.95;4.55;;;;;;;19.13;76.14;99812.47;461999;111;922723;-68
2021/05/18 05:25:30;;;;;;;3.81;3.49;;;;;;;19.18;76.10;99823.47;460831;111;922578;-68
2021/05/18 05:26:36;;;;;;;4.89;3.44;;;;;;;19.23;75.91;99817.06;462558;112;930733;-69
2021/05/18 05:27:40;;;;;;;3.63;3.24;;;;;;;19.28;75.87;99820.61;463414;111;922900;-68
2021/05/18 05:28:44;;;;;;;3.55;3.24;;;;;;;19.34;75.76;99819.45;460927;112;922432;-67
2021/05/18 05:29:48;;;;;;;3.11;2.79;;;;;;;19.41;75.50;99814.38;463016;112;930486;-67
2021/05/18 05:30:51;;;;;;;3.61;2.89;;;;;;;19.45;75.24;99809.97;463356;111;923384;-65
2021/05/18 05:31:56;;;;;;;2.59;2.33;;;;;;;19.49;75.14;99811.03;462767;112;930576;-66
2021/05/18 05:33:00;;;;;;;2.57;2.37;;;;;;;19.53;74.91;99806.55;461584;112;922828;-69
2021/05/18 05:34:04;;;;;;;3.34;2.83;;;;;;;19.56;74.75;99805.98;463259;111;922723;-69
2021/05/18 05:35:08;;;;;;;2.39;2.19;;;;;;;19.60;74.83;99805.39;464036;112;922461;-68
2021/05/18 05:36:13;;;;;;;2.13;1.97;;;;;;;19.62;74.76;99801.23;462881;111;922519;-72
2021/05/18 05:37:17;;;;;;;2.37;1.95;;;;;;;19.63;74.41;99799.29;463256;112;923407;-70
2021/05/18 05:38:23;;;;;;;2.66;1.85;;;;;;;19.64;74.18;99800.91;464337;112;922465;-67
2021/05/18 05:39:27;;;;;;;2.10;1.89;;;;;;;19.64;74.18;99800.91;464139;112;922609;-66
2021/05/18 05:40:31;;;;;;;1.88;1.78;;;;;;;19.64;74.19;99795.37;464130;112;923137;-67
2021/05/18 05:41:34;;;;;;;2.24;1.87;;;;;;;19.66;74.14;99795.92;464240;111;922666;-65
2021/05/18 05:42:38;;;;;;;2.09;1.75;;;;;;;19.67;73.97;99806.70;463687;111;930333;-66
2021/05/18 05:43:42;;;;;;;1.71;1.52;;;;;;;19.67;73.86;99805.88;463812;112;923371;-67
2021/05/18 05:44:45;;;;;;;3.04;1.67;;;;;;;19.67;73.66;99795.64;462521;112;923058;-67
2021/05/18 05:45:52;;;;;;;1.86;1.49;;;;;;;19.69;73.63;99800.85;462862;112;930902;-67
2021/05/18 05:46:56;;;;;;;2.19;1.62;;;;;;;19.69;73.61;99801.68;462800;112;924496;-68
2021/05/18 05:47:59;;;;;;;1.76;1.56;;;;;;;19.73;73.42;99799.17;460441;112;926300;-66
2021/05/18 05:49:04;;;;;;;1.68;1.58;;;;;;;19.73;73.41;99797.23;461555;111;930294;-67
2021/05/18 05:50:10;;;;;;;3.02;1.81;;;;;;;19.75;73.52;99791.38;462726;112;924527;-68
2021/05/18 05:51:14;;;;;;;2.02;1.65;;;;;;;19.76;73.57;99793.86;462667;112;924033;-68
2021/05/18 05:52:19;;;;;;;4.05;1.97;;;;;;;19.78;73.64;99796.34;462692;112;924057;-68
2021/05/18 05:53:23;;;;;;;3.16;1.92;;;;;;;19.79;73.63;99790.49;461885;111;924069;-66
2021/05/18 05:54:26;;;;;;;1.79;1.41;;;;;;;19.80;73.66;99791.31;462374;112;924033;-68
2021/05/18 05:55:30;;;;;;;1.73;1.63;;;;;;;19.82;73.67;99791.86;462350;112;922519;-69
2021/05/18 05:56:35;;;;;;;2.24;1.47;;;;;;;19.82;73.50;99792.69;462951;112;923643;-68
2021/05/18 05:57:40;;;;;;;1.70;1.57;;;;;;;19.82;73.32;99800.98;463255;112;922937;-67
2021/05/18 05:58:46;;;;;;;2.11;1.76;;;;;;;19.83;73.07;99808.17;454267;114;924077;-68
2021/05/18 05:59:50;;;;;;;2.66;1.84;;;;;;;19.82;72.82;99791.86;447601;114;924750;-68
2021/05/18 06:00:56;;;;;;;2.08;1.38;;;;;;;19.82;72.79;99811.23;463198;112;922547;-67
2021/05/18 06:02:03;;;;;;;2.43;1.67;;;;;;;19.80;72.54;99811.51;462825;112;930296;-68
2021/05/18 06:03:05;;;;;;;2.07;1.51;;;;;;;19.81;72.44;99788.27;463363;111;923895;-67
2021/05/18 06:04:09;;;;;;;2.21;1.68;;;;;;;19.84;72.26;99795.17;464159;112;924516;-67
2021/05/18 06:05:13;;;;;;;2.05;1.32;;;;;;;19.84;72.04;99807.06;464088;112;922564;-68
2021/05/18 06:06:17;;;;;;;2.37;1.64;;;;;;;19.86;71.94;99798.44;463566;112;922961;-66
2021/05/18 06:07:21;;;;;;;2.97;1.72;;;;;;;19.88;71.74;99791.51;462749;112;922549;-67
2021/05/18 06:08:26;;;;;;;3.48;1.36;;;;;;;19.90;71.57;99793.99;463173;111;923205;-67
2021/05/18 06:09:31;;;;;;;2.38;1.87;;;;;;;19.93;71.42;99787.85;462506;112;923912;-68
2021/05/18 06:10:40;;;;;;;3.72;1.66;;;;;;;19.96;71.26;99792.78;462673;112;922974;-66
2021/05/18 06:13:20;;;;;;;2.80;1.52;;;;;;;19.99;70.76;99790.27;460935;112;922543;-68
2021/05/18 06:14:36;;;;;;;1.81;1.34;;;;;;;20.02;70.87;99788.83;462429;111;922591;-69
2021/05/18 06:16:02;;;;;;;4.06;1.72;;;;;;;20.04;70.81;99800.44;462191;111;922826;-66
2021/05/18 06:17:20;;;;;;;2.87;2.02;;;;;;;20.05;70.92;99802.09;460698;112;922563;-69
2021/05/18 06:46:18;;;;;;;5.39;1.80;;;;;;;20.53;67.97;99815.86;463167;111;924723;-66
2021/05/18 06:47:31;;;;;;;7.12;2.44;;;;;;;20.53;67.84;99811.15;459928;113;925472;-67
2021/05/18 06:48:36;;;;;;;4.84;2.04;;;;;;;20.53;67.91;99802.84;460942;112;925800;-67
2021/05/18 06:49:44;;;;;;;3.73;2.12;;;;;;;20.54;67.64;99804.49;462779;111;923467;-67
2021/05/18 06:50:47;;;;;;;3.99;1.93;;;;;;;20.55;67.33;99810.86;462466;112;931961;-67
2021/05/18 06:51:53;;;;;;;3.96;2.09;;;;;;;20.54;67.12;99812.80;463096;112;924455;-65
2021/05/18 06:52:57;;;;;;;3.63;2.21;;;;;;;20.54;66.90;99820.28;463436;111;922749;-67
2021/05/18 06:54:01;;;;;;;2.34;1.95;;;;;;;20.53;66.89;99815.86;463696;112;923016;-67
2021/05/18 06:55:09;;;;;;;2.94;1.87;;;;;;;20.51;67.03;99813.38;462008;112;925400;-66
2021/05/18 06:56:14;;;;;;;3.10;2.20;;;;;;;20.53;66.98;99813.92;462769;112;924072;-65
2021/05/18 06:57:19;;;;;;;3.14;1.99;;;;;;;20.54;66.62;99820.28;462327;112;924280;-67
2021/05/18 07:01:02;;;;;;;3.54;2.23;;;;;;;20.60;66.20;99816.32;460082;112;924061;-68
2021/05/18 07:02:05;;;;;;;2.74;2.26;;;;;;;20.61;66.10;99807.72;461692;112;923354;-65
2021/05/18 07:03:16;;;;;;;4.14;1.86;;;;;;;20.62;66.12;99803.80;462863;112;931893;-68
2021/05/18 07:04:18;;;;;;;3.40;2.43;;;;;;;20.64;66.30;99809.87;462840;112;922583;-67
2021/05/18 07:05:39;;;;;;;5.03;2.40;;;;;;;20.66;66.05;99809.59;463980;112;922801;-70
2021/05/18 07:06:48;;;;;;;3.53;2.14;;;;;;;20.69;66.16;99811.74;462234;111;922486;-65
2021/05/18 07:07:54;;;;;;;2.84;1.82;;;;;;;20.70;66.26;99805.09;462627;112;922685;-67
2021/05/18 07:08:55;;;;;;;3.84;2.26;;;;;;;20.71;65.97;99815.05;462798;112;922525;-65
2021/05/18 07:09:59;;;;;;;4.57;2.28;;;;;;;20.73;65.92;99813.61;463021;112;922520;-67
2021/05/18 07:11:02;;;;;;;3.45;1.93;;;;;;;20.76;65.62;99812.20;463291;112;922497;-69
2021/05/18 07:12:07;;;;;;;2.09;1.78;;;;;;;20.79;65.49;99817.13;463190;112;923439;-66
2021/05/18 07:13:12;;;;;;;4.57;1.77;;;;;;;20.80;64.99;99808.52;462801;112;922544;-66
2021/05/18 07:14:16;;;;;;;4.06;2.16;;;;;;;20.80;64.68;99808.52;464397;112;922884;-66
2021/05/18 07:15:20;;;;;;;2.98;1.75;;;;;;;20.80;64.43;99805.75;462812;111;922496;-66
2021/05/18 07:16:24;;;;;;;4.05;1.98;;;;;;;20.81;64.23;99810.17;460692;113;922697;-66